Time;durP1;ratioP1;P1;durP2;ratioP2;P2;SDS_P1;SDS_P2;PMS_P1;PMS_P2;Temp;Humidity;BMP_temperature;BMP_pressure;BME280_temperature;BME280_humidity;BME280_pressure;Samples;Min_cycle;Max_cycle;Signal;HPM_P1;HPM_P2
2021/12/21 00:00:00;;;;;;;0.47;0.30;;;;;;;;;;5021530;28;20032;-72
2021/12/21 00:02:26;;;;;;;0.10;0.10;;;;;;;;;;5025681;28;20052;-72
2021/12/21 00:04:52;;;;;;;1.05;0.57;;;;;;;;;;5021804;28;20028;-72
2021/12/21 00:07:18;;;;;;;0.13;0.13;;;;;;;;;;5035351;28;20040;-72
2021/12/21 00:09:44;;;;;;;1.30;0.73;;;;;;;;;;5041031;28;20126;-73
2021/12/21 00:12:14;;;;;;;0.13;0.13;;;;;;;;;;5024686;28;20510;-72
2021/12/21 00:25:18;;;;;;;1.95;0.65;;;;;;;;;;5036591;28;20412;-72
2021/12/21 00:27:46;;;;;;;0.60;0.60;;;;;;;;;;5027471;28;20037;-72
2021/12/21 00:30:12;;;;;;;0.40;0.40;;;;;;;;;;5041229;28;20037;-72
2021/12/21 00:32:38;;;;;;;0.00;0.00;;;;;;;;;;5038268;28;20479;-72
2021/12/21 00:35:04;;;;;;;0.30;0.30;;;;;;;;;;5035428;28;20036;-72
2021/12/21 00:37:30;;;;;;;0.30;0.30;;;;;;;;;;5021573;28;20400;-72
2021/12/21 00:39:57;;;;;;;1.45;0.98;;;;;;;;;;5026462;28;20044;-72
2021/12/21 00:42:23;;;;;;;0.85;0.65;;;;;;;;;;5035244;28;20487;-72
2021/12/21 00:44:49;;;;;;;2.08;1.10;;;;;;;;;;5044572;28;20151;-72
2021/12/21 00:47:16;;;;;;;0.20;0.20;;;;;;;;;;5035066;28;20051;-72
2021/12/21 00:49:46;;;;;;;0.10;0.10;;;;;;;;;;5037538;28;20028;-72
2021/12/21 00:52:13;;;;;;;0.15;0.15;;;;;;;;;;5042404;28;20014;-72
2021/12/21 00:54:39;;;;;;;0.10;0.10;;;;;;;;;;5041655;28;20026;-72
2021/12/21 00:57:05;;;;;;;0.13;0.13;;;;;;;;;;5034992;28;20025;-72
2021/12/21 00:59:32;;;;;;;0.20;0.20;;;;;;;;;;5033707;28;20144;-72
2021/12/21 01:01:58;;;;;;;0.10;0.10;;;;;;;;;;5031537;28;20056;-72
2021/12/21 01:04:30;;;;;;;0.70;0.50;;;;;;;;;;5022960;28;20060;-71
2021/12/21 01:07:10;;;;;;;0.00;0.00;;;;;;;;;;5027209;28;20024;-72
2021/12/21 01:15:20;;;;;;;0.20;0.20;;;;;;;;;;5040305;28;20038;-72
2021/12/21 01:17:53;;;;;;;0.10;0.10;;;;;;;;;;5044211;28;20104;-72
2021/12/21 01:20:40;;;;;;;0.35;0.35;;;;;;;;;;5042629;28;20164;-72
2021/12/21 01:28:32;;;;;;;0.47;0.47;;;;;;;;;;5036450;28;20029;-71
2021/12/21 01:31:13;;;;;;;0.20;0.20;;;;;;;;;;5027998;28;20407;-72
2021/12/21 01:34:05;;;;;;;0.20;0.20;;;;;;;;;;5023010;28;20033;-72
2021/12/21 01:36:42;;;;;;;0.10;0.10;;;;;;;;;;5032832;28;20514;-71
2021/12/21 01:41:58;;;;;;;0.03;0.03;;;;;;;;;;5040923;28;20040;-71
2021/12/21 01:49:33;;;;;;;0.22;0.22;;;;;;;;;;5020842;28;20034;-72
2021/12/21 01:49:55;;;;;;;0.57;0.57;;;;;;;;;;5035417;28;20043;-72
2021/12/21 01:52:25;;;;;;;0.10;0.10;;;;;;;;;;5040904;28;20112;-71
2021/12/21 01:54:52;;;;;;;0.17;0.17;;;;;;;;;;5044153;28;20017;-72
2021/12/21 01:57:18;;;;;;;0.52;0.52;;;;;;;;;;5039206;28;20542;-71
2021/12/21 01:59:45;;;;;;;0.52;0.43;;;;;;;;;;5026963;28;20028;-72
2021/12/21 02:02:12;;;;;;;1.10;0.80;;;;;;;;;;5028129;28;20083;-72
2021/12/21 02:04:39;;;;;;;0.17;0.17;;;;;;;;;;5033467;28;20060;-72
2021/12/21 02:07:05;;;;;;;0.10;0.10;;;;;;;;;;5027246;28;20052;-72
2021/12/21 02:09:37;;;;;;;0.20;0.20;;;;;;;;;;5037040;28;20454;-71
2021/12/21 02:12:06;;;;;;;0.45;0.45;;;;;;;;;;5030600;28;20025;-72
2021/12/21 02:14:33;;;;;;;0.08;0.08;;;;;;;;;;5039171;28;20036;-72
2021/12/21 02:19:31;;;;;;;0.28;0.28;;;;;;;;;;5035596;28;20145;-71
2021/12/21 02:22:07;;;;;;;1.65;1.52;;;;;;;;;;5037150;28;20113;-71
2021/12/21 02:24:43;;;;;;;0.10;0.10;;;;;;;;;;5031413;28;20060;-71
2021/12/21 02:27:27;;;;;;;0.03;0.03;;;;;;;;;;5023607;28;20046;-72
2021/12/21 02:29:53;;;;;;;0.00;0.00;;;;;;;;;;5027130;28;20029;-71
2021/12/21 02:32:19;;;;;;;0.10;0.10;;;;;;;;;;5021895;28;20099;-71
2021/12/21 02:34:45;;;;;;;0.20;0.20;;;;;;;;;;5023520;28;20041;-71
2021/12/21 02:37:11;;;;;;;0.75;0.75;;;;;;;;;;5027458;28;20026;-72
2021/12/21 02:39:38;;;;;;;0.25;0.25;;;;;;;;;;5034449;28;20033;-72
2021/12/21 02:42:04;;;;;;;0.10;0.10;;;;;;;;;;5035079;28;20033;-72
2021/12/21 02:44:30;;;;;;;0.57;0.57;;;;;;;;;;5028293;28;20017;-72
2021/12/21 02:46:56;;;;;;;1.05;1.02;;;;;;;;;;5042118;28;20036;-72
2021/12/21 02:49:22;;;;;;;0.47;0.47;;;;;;;;;;5043220;28;20033;-72
2021/12/21 02:51:48;;;;;;;0.43;0.43;;;;;;;;;;5044893;28;20026;-72
2021/12/21 02:54:15;;;;;;;0.30;0.30;;;;;;;;;;5044763;28;20025;-71
2021/12/21 02:56:41;;;;;;;1.50;1.45;;;;;;;;;;5043787;28;20060;-71
2021/12/21 02:59:07;;;;;;;3.95;1.98;;;;;;;;;;5041531;28;20130;-72
2021/12/21 03:01:33;;;;;;;0.65;0.65;;;;;;;;;;5031765;28;20085;-72
2021/12/21 03:03:59;;;;;;;0.30;0.30;;;;;;;;;;5036441;28;20112;-72
2021/12/21 03:07:06;;;;;;;8.20;2.30;;;;;;;;;;5030164;28;20056;-71
2021/12/21 03:12:14;;;;;;;0.15;0.15;;;;;;;;;;5039860;28;20372;-72
2021/12/21 03:14:36;;;;;;;0.20;0.20;;;;;;;;;;5039514;28;20056;-71
2021/12/21 03:17:03;;;;;;;0.32;0.32;;;;;;;;;;5024504;28;20026;-72
2021/12/21 03:19:29;;;;;;;0.10;0.10;;;;;;;;;;5026420;28;20025;-72
2021/12/21 03:21:55;;;;;;;1.17;0.60;;;;;;;;;;5035870;28;20464;-72
2021/12/21 03:24:20;;;;;;;0.40;0.40;;;;;;;;;;5039342;28;20047;-71
2021/12/21 03:26:46;;;;;;;0.10;0.10;;;;;;;;;;5039016;28;20106;-72
2021/12/21 03:29:13;;;;;;;0.80;0.57;;;;;;;;;;5035946;28;20033;-72
2021/12/21 03:31:39;;;;;;;0.25;0.25;;;;;;;;;;5044121;28;20021;-72
2021/12/21 03:34:06;;;;;;;0.17;0.17;;;;;;;;;;5025797;28;20039;-72
2021/12/21 03:36:32;;;;;;;0.10;0.10;;;;;;;;;;5033056;28;20075;-72
2021/12/21 03:39:04;;;;;;;6.72;2.10;;;;;;;;;;5022550;28;20048;-71
2021/12/21 03:41:31;;;;;;;0.10;0.10;;;;;;;;;;5039701;28;20147;-72
2021/12/21 03:44:00;;;;;;;0.10;0.10;;;;;;;;;;5041314;28;20029;-72
2021/12/21 03:46:26;;;;;;;1.10;1.10;;;;;;;;;;5031841;28;20432;-72
2021/12/21 03:48:52;;;;;;;0.40;0.40;;;;;;;;;;5032798;28;20030;-72
2021/12/21 03:51:19;;;;;;;0.93;0.45;;;;;;;;;;5039567;28;20036;-71
2021/12/21 03:53:45;;;;;;;0.10;0.10;;;;;;;;;;5029205;28;20055;-72
2021/12/21 03:58:47;;;;;;;0.35;0.35;;;;;;;;;;5048273;28;20068;-72
2021/12/21 04:01:13;;;;;;;1.08;0.88;;;;;;;;;;5037569;28;20032;-72
2021/12/21 04:03:39;;;;;;;1.48;0.57;;;;;;;;;;5048915;28;20029;-72
2021/12/21 04:06:06;;;;;;;2.38;1.17;;;;;;;;;;5046995;28;20029;-73
2021/12/21 04:08:33;;;;;;;0.10;0.10;;;;;;;;;;5041214;28;20021;-72
2021/12/21 04:10:59;;;;;;;0.82;0.30;;;;;;;;;;5030068;28;20075;-72
2021/12/21 04:13:26;;;;;;;0.40;0.40;;;;;;;;;;5037995;28;20491;-71
2021/12/21 04:15:53;;;;;;;0.30;0.30;;;;;;;;;;5049609;28;20322;-71
2021/12/21 04:18:22;;;;;;;0.20;0.20;;;;;;;;;;5036168;28;20041;-71
2021/12/21 04:20:48;;;;;;;0.20;0.20;;;;;;;;;;5031703;28;20484;-71
2021/12/21 04:23:14;;;;;;;0.20;0.20;;;;;;;;;;5041929;28;20112;-72
2021/12/21 04:25:40;;;;;;;0.60;0.60;;;;;;;;;;5046107;28;20180;-71
2021/12/21 04:28:06;;;;;;;0.85;0.65;;;;;;;;;;5037718;28;20040;-71
2021/12/21 04:30:32;;;;;;;0.25;0.25;;;;;;;;;;5028908;28;20408;-72
2021/12/21 04:32:58;;;;;;;0.88;0.88;;;;;;;;;;5031303;28;20041;-71
2021/12/21 04:35:24;;;;;;;0.38;0.38;;;;;;;;;;5031243;28;20075;-73
2021/12/21 04:37:57;;;;;;;0.50;0.50;;;;;;;;;;5043662;28;20021;-73
2021/12/21 04:40:35;;;;;;;0.80;0.38;;;;;;;;;;5033787;28;20057;-73
2021/12/21 04:43:01;;;;;;;0.38;0.38;;;;;;;;;;5031043;28;20133;-73
2021/12/21 04:45:27;;;;;;;0.45;0.45;;;;;;;;;;5034641;28;20096;-72
2021/12/21 04:47:53;;;;;;;0.30;0.30;;;;;;;;;;5030171;28;20040;-72
2021/12/21 04:50:18;;;;;;;1.10;0.85;;;;;;;;;;5040022;28;20031;-73
2021/12/21 04:52:44;;;;;;;0.50;0.50;;;;;;;;;;5039368;28;20391;-72
2021/12/21 04:55:10;;;;;;;0.47;0.47;;;;;;;;;;5031976;28;20424;-72
2021/12/21 04:57:36;;;;;;;0.25;0.25;;;;;;;;;;5046381;28;20051;-72
2021/12/21 05:00:04;;;;;;;1.00;0.40;;;;;;;;;;5045713;28;20036;-73
2021/12/21 05:02:30;;;;;;;31.90;1.48;;;;;;;;;;5029617;28;20030;-72
2021/12/21 05:04:56;;;;;;;1.00;0.80;;;;;;;;;;5032363;28;20095;-73
2021/12/21 05:07:24;;;;;;;0.10;0.10;;;;;;;;;;5038377;28;20021;-72
2021/12/21 05:09:56;;;;;;;0.35;0.35;;;;;;;;;;5043746;28;20396;-70
2021/12/21 05:12:22;;;;;;;0.10;0.10;;;;;;;;;;5029139;28;20076;-72
2021/12/21 05:14:49;;;;;;;0.60;0.60;;;;;;;;;;5040345;28;20040;-72
2021/12/21 05:17:14;;;;;;;7.40;2.10;;;;;;;;;;5033821;28;20060;-71
2021/12/21 05:19:40;;;;;;;0.32;0.30;;;;;;;;;;5040223;28;20025;-72
2021/12/21 05:22:07;;;;;;;0.10;0.10;;;;;;;;;;5030641;28;20017;-72
2021/12/21 05:24:32;;;;;;;1.08;1.02;;;;;;;;;;5028473;28;20030;-71
2021/12/21 05:26:59;;;;;;;0.47;0.47;;;;;;;;;;5039118;28;20057;-72
2021/12/21 05:29:26;;;;;;;0.65;0.65;;;;;;;;;;5030948;28;20033;-71
2021/12/21 05:31:52;;;;;;;0.30;0.30;;;;;;;;;;5040529;28;20108;-71
2021/12/21 05:34:18;;;;;;;0.20;0.20;;;;;;;;;;5045982;28;20108;-71
2021/12/21 05:36:43;;;;;;;1.10;0.60;;;;;;;;;;5034618;28;20037;-71
2021/12/21 05:39:18;;;;;;;15.68;0.80;;;;;;;;;;5032441;28;20187;-72
2021/12/21 05:41:50;;;;;;;0.40;0.40;;;;;;;;;;5036264;28;20086;-72
2021/12/21 05:44:17;;;;;;;0.30;0.30;;;;;;;;;;5044726;28;20132;-71
2021/12/21 05:46:43;;;;;;;0.55;0.35;;;;;;;;;;5044135;28;20057;-72
2021/12/21 05:49:09;;;;;;;0.70;0.52;;;;;;;;;;5042983;28;20029;-71
2021/12/21 05:51:35;;;;;;;1.75;1.30;;;;;;;;;;5048757;28;20021;-71
2021/12/21 05:54:01;;;;;;;0.15;0.15;;;;;;;;;;5040982;28;20435;-72
2021/12/21 05:56:27;;;;;;;2.28;1.55;;;;;;;;;;5034183;28;20060;-71
2021/12/21 05:58:52;;;;;;;1.75;0.85;;;;;;;;;;5034038;28;20127;-71
2021/12/21 06:01:19;;;;;;;1.05;0.95;;;;;;;;;;5031164;28;20021;-72
2021/12/21 06:03:45;;;;;;;2.83;1.17;;;;;;;;;;5034954;28;20029;-72
2021/12/21 06:06:15;;;;;;;0.22;0.22;;;;;;;;;;5031931;28;20113;-72
2021/12/21 06:08:47;;;;;;;0.45;0.40;;;;;;;;;;5046238;28;20049;-71
2021/12/21 06:11:14;;;;;;;2.10;1.42;;;;;;;;;;5034730;28;20404;-72
2021/12/21 06:14:04;;;;;;;3.10;1.00;;;;;;;;;;5037993;28;20435;-72
2021/12/21 06:25:22;;;;;;;1.17;1.17;;;;;;;;;;5047140;28;20387;-72
2021/12/21 06:27:30;;;;;;;0.20;0.20;;;;;;;;;;5043077;28;20072;-70
2021/12/21 06:29:56;;;;;;;0.30;0.30;;;;;;;;;;5041067;28;20025;-71
2021/12/21 06:32:22;;;;;;;0.43;0.43;;;;;;;;;;5030968;28;20035;-71
2021/12/21 06:34:48;;;;;;;0.50;0.50;;;;;;;;;;5035149;28;20104;-72
2021/12/21 06:37:14;;;;;;;0.40;0.40;;;;;;;;;;5034503;28;20465;-70
2021/12/21 06:39:40;;;;;;;0.55;0.55;;;;;;;;;;5038178;28;20681;-69
2021/12/21 06:42:06;;;;;;;0.30;0.30;;;;;;;;;;5041625;28;20637;-69
2021/12/21 06:44:33;;;;;;;0.13;0.13;;;;;;;;;;5035297;28;20037;-69
2021/12/21 06:52:29;;;;;;;0.30;0.30;;;;;;;;;;5031421;28;20097;-70
2021/12/21 06:55:04;;;;;;;0.45;0.45;;;;;;;;;;5035539;28;20084;-68
2021/12/21 06:57:30;;;;;;;0.85;0.68;;;;;;;;;;5035498;28;20022;-70
2021/12/21 06:59:56;;;;;;;0.90;0.85;;;;;;;;;;5031043;28;20060;-71
2021/12/21 07:02:22;;;;;;;0.30;0.30;;;;;;;;;;5032348;28;20049;-71
2021/12/21 07:04:48;;;;;;;0.20;0.20;;;;;;;;;;5040078;28;20048;-71
2021/12/21 07:07:16;;;;;;;1.58;0.60;;;;;;;;;;5048925;28;20028;-72
2021/12/21 07:09:45;;;;;;;0.75;0.45;;;;;;;;;;5049953;28;20029;-72
2021/12/21 07:12:30;;;;;;;0.43;0.43;;;;;;;;;;5034283;28;20032;-70
2021/12/21 07:18:07;;;;;;;0.52;0.52;;;;;;;;;;5035000;28;20064;-72
2021/12/21 07:20:33;;;;;;;0.35;0.35;;;;;;;;;;5047417;28;20054;-72
2021/12/21 07:22:59;;;;;;;0.08;0.08;;;;;;;;;;5040649;28;20033;-71
2021/12/21 07:25:27;;;;;;;1.17;0.73;;;;;;;;;;5029448;28;20029;-69
2021/12/21 07:27:53;;;;;;;0.10;0.10;;;;;;;;;;5031358;28;20029;-70
2021/12/21 07:30:19;;;;;;;0.15;0.15;;;;;;;;;;5030787;28;20048;-71
2021/12/21 07:32:44;;;;;;;0.90;0.90;;;;;;;;;;5040529;28;20041;-70
2021/12/21 07:35:10;;;;;;;1.17;0.80;;;;;;;;;;5047779;28;20037;-71
2021/12/21 07:37:36;;;;;;;1.17;1.08;;;;;;;;;;5036864;28;20033;-70
2021/12/21 07:40:03;;;;;;;0.10;0.10;;;;;;;;;;5037987;28;20521;-70
2021/12/21 07:42:29;;;;;;;1.30;0.85;;;;;;;;;;5042824;28;20029;-71
2021/12/21 07:44:55;;;;;;;0.40;0.35;;;;;;;;;;5031902;28;20044;-71
2021/12/21 07:47:21;;;;;;;0.68;0.68;;;;;;;;;;5030103;28;20032;-71
2021/12/21 07:49:47;;;;;;;0.10;0.10;;;;;;;;;;5029917;28;20025;-71
2021/12/21 07:52:13;;;;;;;0.10;0.10;;;;;;;;;;5030973;28;20479;-71
2021/12/21 07:54:39;;;;;;;0.75;0.52;;;;;;;;;;5030262;28;20488;-72
2021/12/21 07:57:09;;;;;;;0.52;0.52;;;;;;;;;;5030191;28;20032;-72
2021/12/21 07:59:35;;;;;;;0.15;0.15;;;;;;;;;;5047074;28;20029;-72
2021/12/21 08:02:01;;;;;;;0.50;0.50;;;;;;;;;;5034592;28;20025;-72
2021/12/21 08:04:28;;;;;;;0.80;0.73;;;;;;;;;;5030902;28;20041;-72
2021/12/21 08:06:57;;;;;;;0.45;0.45;;;;;;;;;;5036172;28;20021;-71
2021/12/21 08:09:26;;;;;;;0.63;0.55;;;;;;;;;;5029011;28;20029;-71
2021/12/21 08:14:36;;;;;;;0.73;0.73;;;;;;;;;;5033540;28;20484;-70
2021/12/21 08:17:02;;;;;;;0.20;0.20;;;;;;;;;;5029034;28;20030;-71
2021/12/21 08:19:28;;;;;;;1.75;0.75;;;;;;;;;;5032755;28;20052;-74
2021/12/21 08:21:54;;;;;;;0.80;0.38;;;;;;;;;;5039392;28;20036;-73
2021/12/21 08:24:19;;;;;;;0.22;0.22;;;;;;;;;;5037652;28;21542;-72
2021/12/21 08:26:45;;;;;;;0.55;0.47;;;;;;;;;;5041594;28;20133;-74
2021/12/21 08:29:11;;;;;;;1.55;0.95;;;;;;;;;;5045245;28;20035;-75
2021/12/21 08:31:37;;;;;;;0.25;0.25;;;;;;;;;;5036956;28;20056;-76
2021/12/21 08:34:03;;;;;;;0.20;0.20;;;;;;;;;;5031149;28;20036;-73
2021/12/21 08:36:31;;;;;;;1.67;0.82;;;;;;;;;;5032129;28;20020;-71
2021/12/21 08:38:57;;;;;;;1.55;0.70;;;;;;;;;;5043208;28;20029;-72
2021/12/21 08:41:23;;;;;;;0.60;0.60;;;;;;;;;;5028925;28;20155;-71
2021/12/21 08:43:50;;;;;;;0.20;0.20;;;;;;;;;;5046768;28;20048;-72
2021/12/21 08:46:16;;;;;;;0.57;0.57;;;;;;;;;;5037329;28;20025;-74
2021/12/21 08:48:42;;;;;;;1.35;1.20;;;;;;;;;;5035319;28;20423;-73
2021/12/21 08:51:08;;;;;;;0.70;0.65;;;;;;;;;;5032506;28;20574;-73
2021/12/21 08:53:34;;;;;;;0.50;0.50;;;;;;;;;;5036650;28;20030;-73
2021/12/21 08:56:00;;;;;;;0.40;0.40;;;;;;;;;;5032202;28;20025;-72
2021/12/21 08:58:26;;;;;;;1.13;1.00;;;;;;;;;;5033030;28;20032;-75
2021/12/21 09:00:53;;;;;;;1.10;1.02;;;;;;;;;;5032826;28;20083;-75
2021/12/21 09:03:19;;;;;;;0.30;0.30;;;;;;;;;;5038471;28;20029;-75
2021/12/21 09:05:45;;;;;;;0.75;0.63;;;;;;;;;;5042461;28;20068;-77
2021/12/21 09:08:11;;;;;;;0.20;0.20;;;;;;;;;;5032308;28;20068;-74
2021/12/21 09:10:39;;;;;;;0.10;0.10;;;;;;;;;;5031956;28;20112;-75
2021/12/21 09:13:05;;;;;;;0.20;0.20;;;;;;;;;;5037364;28;20033;-76
2021/12/21 09:15:31;;;;;;;0.20;0.20;;;;;;;;;;5042448;28;20064;-75
2021/12/21 09:17:57;;;;;;;0.52;0.52;;;;;;;;;;5036718;28;20163;-75
2021/12/21 09:20:24;;;;;;;0.70;0.65;;;;;;;;;;5047415;28;20140;-75
2021/12/21 09:22:51;;;;;;;0.75;0.75;;;;;;;;;;5046799;28;20024;-75
2021/12/21 09:25:17;;;;;;;0.35;0.35;;;;;;;;;;5042783;28;20045;-76
2021/12/21 09:27:44;;;;;;;2.45;0.80;;;;;;;;;;5044434;28;20029;-75
2021/12/21 09:30:11;;;;;;;0.15;0.15;;;;;;;;;;5039121;28;20452;-73
2021/12/21 09:32:37;;;;;;;1.45;1.27;;;;;;;;;;5045331;28;20053;-73
2021/12/21 09:35:03;;;;;;;5.13;1.75;;;;;;;;;;5031142;28;20053;-73
2021/12/21 09:37:31;;;;;;;1.38;1.30;;;;;;;;;;5035851;28;20055;-73
2021/12/21 09:39:57;;;;;;;0.47;0.47;;;;;;;;;;5035457;28;20025;-73
2021/12/21 09:42:25;;;;;;;0.95;0.95;;;;;;;;;;5033428;28;20099;-73
2021/12/21 09:44:52;;;;;;;0.82;0.82;;;;;;;;;;5043385;28;20052;-73
2021/12/21 09:47:18;;;;;;;1.27;1.10;;;;;;;;;;5039904;28;20025;-72
2021/12/21 09:49:44;;;;;;;0.40;0.40;;;;;;;;;;5034703;28;20021;-74
2021/12/21 09:52:12;;;;;;;0.20;0.20;;;;;;;;;;5032076;28;20107;-72
2021/12/21 09:54:39;;;;;;;29.48;2.33;;;;;;;;;;5045349;28;20038;-71
2021/12/21 09:57:06;;;;;;;0.55;0.55;;;;;;;;;;5042237;28;20025;-73
2021/12/21 09:59:32;;;;;;;0.63;0.63;;;;;;;;;;5032231;28;20396;-73
2021/12/21 10:01:58;;;;;;;0.77;0.68;;;;;;;;;;5045283;28;20025;-73
2021/12/21 10:04:25;;;;;;;0.40;0.40;;;;;;;;;;5046284;28;20039;-73
2021/12/21 10:06:52;;;;;;;0.35;0.35;;;;;;;;;;5031136;28;20104;-73
2021/12/21 10:09:20;;;;;;;0.63;0.60;;;;;;;;;;5048822;28;20590;-72
2021/12/21 10:11:48;;;;;;;0.95;0.88;;;;;;;;;;5036111;28;20036;-73
2021/12/21 10:14:15;;;;;;;1.30;0.95;;;;;;;;;;5046423;28;20043;-73
2021/12/21 10:16:48;;;;;;;0.35;0.35;;;;;;;;;;5031064;28;20033;-73
2021/12/21 10:19:24;;;;;;;1.67;1.55;;;;;;;;;;5027327;28;20026;-73
2021/12/21 10:21:50;;;;;;;1.08;0.80;;;;;;;;;;5038436;28;20033;-73
2021/12/21 10:24:24;;;;;;;1.75;1.65;;;;;;;;;;5045881;28;20498;-73
2021/12/21 10:26:52;;;;;;;0.47;0.47;;;;;;;;;;5031802;28;20046;-73
2021/12/21 10:29:18;;;;;;;1.30;1.20;;;;;;;;;;5030347;28;20610;-73
2021/12/21 10:31:46;;;;;;;0.10;0.10;;;;;;;;;;5038369;28;20082;-73
2021/12/21 10:34:16;;;;;;;0.73;0.73;;;;;;;;;;5050177;28;20037;-74
2021/12/21 10:36:47;;;;;;;0.25;0.25;;;;;;;;;;5037457;28;20030;-73
2021/12/21 10:39:20;;;;;;;0.00;0.00;;;;;;;;;;5029846;28;20052;-73
2021/12/21 10:41:45;;;;;;;0.05;0.05;;;;;;;;;;5049018;28;20032;-73
2021/12/21 10:44:13;;;;;;;6.00;2.05;;;;;;;;;;5029590;28;20167;-74
2021/12/21 10:46:40;;;;;;;1.95;0.80;;;;;;;;;;5030374;28;20026;-73
2021/12/21 10:49:10;;;;;;;0.30;0.30;;;;;;;;;;5029596;28;20029;-73
2021/12/21 10:51:37;;;;;;;0.10;0.10;;;;;;;;;;5032430;28;20087;-74
2021/12/21 10:54:03;;;;;;;0.30;0.30;;;;;;;;;;5029881;28;20040;-73
2021/12/21 10:56:29;;;;;;;0.43;0.43;;;;;;;;;;5030210;28;20029;-73
2021/12/21 10:58:55;;;;;;;0.15;0.15;;;;;;;;;;5032003;28;20037;-73
2021/12/21 11:01:26;;;;;;;1.30;1.13;;;;;;;;;;5029823;28;20029;-74
2021/12/21 11:03:54;;;;;;;0.68;0.68;;;;;;;;;;5030660;28;20040;-73
2021/12/21 11:06:22;;;;;;;2.92;1.48;;;;;;;;;;5033893;28;20439;-73
2021/12/21 11:08:53;;;;;;;2.30;1.10;;;;;;;;;;5041086;28;20152;-74
2021/12/21 11:11:22;;;;;;;0.90;0.90;;;;;;;;;;5029640;28;20032;-74
2021/12/21 11:13:57;;;;;;;3.10;1.25;;;;;;;;;;5031386;28;20044;-74
2021/12/21 11:16:26;;;;;;;1.85;1.33;;;;;;;;;;5039591;28;20064;-78
2021/12/21 11:18:52;;;;;;;0.95;0.95;;;;;;;;;;5030246;28;20057;-73
2021/12/21 11:21:18;;;;;;;1.08;0.98;;;;;;;;;;5029769;28;20609;-74
2021/12/21 11:23:44;;;;;;;2.60;1.27;;;;;;;;;;5029476;28;20499;-74
2021/12/21 11:26:12;;;;;;;3.20;0.75;;;;;;;;;;5037999;28;20045;-73
2021/12/21 11:28:38;;;;;;;0.70;0.70;;;;;;;;;;5047110;28;20048;-73
2021/12/21 11:31:06;;;;;;;0.95;0.90;;;;;;;;;;5048824;28;20535;-74
2021/12/21 11:33:36;;;;;;;0.20;0.20;;;;;;;;;;5048388;28;20029;-74
2021/12/21 11:38:47;;;;;;;0.68;0.68;;;;;;;;;;5029416;28;20132;-74
2021/12/21 11:41:13;;;;;;;0.80;0.38;;;;;;;;;;5028668;28;20121;-74
2021/12/21 11:43:41;;;;;;;0.47;0.47;;;;;;;;;;5028807;28;20026;-74
2021/12/21 11:46:10;;;;;;;0.75;0.75;;;;;;;;;;5028863;28;20013;-74
2021/12/21 11:48:42;;;;;;;2.97;1.05;;;;;;;;;;5047730;28;20534;-74
2021/12/21 11:51:09;;;;;;;0.30;0.30;;;;;;;;;;5048631;28;20161;-74
2021/12/21 11:53:36;;;;;;;2.90;1.27;;;;;;;;;;5048636;28;20047;-74
2021/12/21 11:56:02;;;;;;;1.55;0.70;;;;;;;;;;5048556;28;20064;-73
2021/12/21 11:58:39;;;;;;;0.10;0.10;;;;;;;;;;5034554;28;20420;-74
2021/12/21 12:01:06;;;;;;;0.43;0.32;;;;;;;;;;5036337;28;20423;-74
2021/12/21 12:03:35;;;;;;;3.10;1.55;;;;;;;;;;5048478;28;20033;-74
2021/12/21 12:06:02;;;;;;;0.85;0.85;;;;;;;;;;5035350;28;20099;-74
2021/12/21 12:08:43;;;;;;;0.30;0.30;;;;;;;;;;5029677;28;20029;-74
2021/12/21 12:11:20;;;;;;;4.70;1.70;;;;;;;;;;5028392;28;20029;-74
2021/12/21 12:13:46;;;;;;;0.50;0.50;;;;;;;;;;5037025;28;20048;-75
2021/12/21 12:16:13;;;;;;;0.20;0.20;;;;;;;;;;5048403;28;20028;-74
2021/12/21 12:18:46;;;;;;;0.32;0.32;;;;;;;;;;5044639;28;20381;-73
2021/12/21 12:21:15;;;;;;;0.22;0.22;;;;;;;;;;5032808;28;20111;-75
2021/12/21 12:23:46;;;;;;;0.10;0.10;;;;;;;;;;5028462;28;20060;-75
2021/12/21 12:26:19;;;;;;;0.63;0.63;;;;;;;;;;5029811;28;20033;-75
2021/12/21 12:28:45;;;;;;;0.20;0.20;;;;;;;;;;5028623;28;20029;-74
2021/12/21 12:31:11;;;;;;;1.17;1.08;;;;;;;;;;5029937;28;20025;-74
2021/12/21 12:33:39;;;;;;;1.33;1.05;;;;;;;;;;5031330;28;20033;-74
2021/12/21 12:36:05;;;;;;;2.05;1.25;;;;;;;;;;5028239;28;20109;-74
2021/12/21 12:38:31;;;;;;;0.20;0.20;;;;;;;;;;5028376;28;20037;-74
2021/12/21 12:40:58;;;;;;;1.45;0.77;;;;;;;;;;5027977;28;20550;-74
2021/12/21 12:43:29;;;;;;;1.45;1.35;;;;;;;;;;5038957;28;20052;-74
2021/12/21 12:46:06;;;;;;;0.65;0.65;;;;;;;;;;5049995;28;20037;-75
2021/12/21 12:48:39;;;;;;;0.10;0.10;;;;;;;;;;5032422;28;20026;-73
2021/12/21 12:51:06;;;;;;;0.80;0.80;;;;;;;;;;5031843;28;20044;-73
2021/12/21 12:53:37;;;;;;;2.92;1.80;;;;;;;;;;5032176;28;20551;-73
2021/12/21 12:56:03;;;;;;;0.85;0.80;;;;;;;;;;5033170;28;20037;-73
2021/12/21 12:58:29;;;;;;;3.33;0.88;;;;;;;;;;5031999;28;20083;-73
2021/12/21 13:00:57;;;;;;;0.32;0.32;;;;;;;;;;5031995;28;20041;-73
2021/12/21 13:03:31;;;;;;;2.25;0.93;;;;;;;;;;5031543;28;20117;-73
2021/12/21 13:05:59;;;;;;;0.47;0.47;;;;;;;;;;5043503;28;20047;-74
2021/12/21 13:08:29;;;;;;;0.47;0.47;;;;;;;;;;5051488;28;20029;-73
2021/12/21 13:10:57;;;;;;;5.28;0.73;;;;;;;;;;5051715;28;20032;-74
2021/12/21 13:13:31;;;;;;;0.20;0.20;;;;;;;;;;5049667;28;20035;-73
2021/12/21 13:15:57;;;;;;;0.32;0.32;;;;;;;;;;5046869;28;20375;-73
2021/12/21 13:18:23;;;;;;;0.15;0.15;;;;;;;;;;5031577;28;20061;-73
2021/12/21 13:20:51;;;;;;;0.55;0.55;;;;;;;;;;5033224;28;20040;-73
2021/12/21 13:23:21;;;;;;;0.95;0.93;;;;;;;;;;5034400;28;20055;-74
2021/12/21 13:25:54;;;;;;;0.98;0.93;;;;;;;;;;5031920;28;20025;-73
2021/12/21 13:28:19;;;;;;;1.00;0.98;;;;;;;;;;5051143;28;20123;-73
2021/12/21 13:30:47;;;;;;;0.30;0.30;;;;;;;;;;5051566;28;20488;-73
2021/12/21 13:33:24;;;;;;;2.45;0.65;;;;;;;;;;5050825;28;20025;-74
2021/12/21 13:35:50;;;;;;;0.10;0.10;;;;;;;;;;5039412;28;20068;-73
2021/12/21 13:38:17;;;;;;;0.40;0.40;;;;;;;;;;5043935;28;20039;-74
2021/12/21 13:40:43;;;;;;;0.82;0.82;;;;;;;;;;5051493;28;20029;-73
2021/12/21 13:43:13;;;;;;;0.35;0.35;;;;;;;;;;5050966;28;20130;-74
2021/12/21 13:45:39;;;;;;;2.72;1.55;;;;;;;;;;5051005;28;20086;-74
2021/12/21 13:48:05;;;;;;;0.05;0.05;;;;;;;;;;5042136;28;20033;-74
2021/12/21 13:50:31;;;;;;;0.10;0.10;;;;;;;;;;5031008;28;20033;-75
2021/12/21 13:53:00;;;;;;;0.20;0.20;;;;;;;;;;5030959;28;20022;-74
2021/12/21 13:55:29;;;;;;;0.10;0.10;;;;;;;;;;5030034;28;20298;-74
2021/12/21 13:57:56;;;;;;;0.10;0.10;;;;;;;;;;5030894;28;20494;-74
2021/12/21 14:00:27;;;;;;;0.40;0.40;;;;;;;;;;5030757;28;20033;-74
2021/12/21 14:03:03;;;;;;;1.17;1.07;;;;;;;;;;5030972;28;20559;-74
2021/12/21 14:05:43;;;;;;;0.45;0.43;;;;;;;;;;5030657;28;20339;-74
2021/12/21 14:08:10;;;;;;;0.70;0.70;;;;;;;;;;5031953;28;20048;-74
2021/12/21 14:10:43;;;;;;;2.25;2.05;;;;;;;;;;5039679;28;20371;-74
2021/12/21 14:13:09;;;;;;;8.63;3.58;;;;;;;;;;5034022;28;20044;-74
2021/12/21 14:15:36;;;;;;;3.25;2.95;;;;;;;;;;5050244;28;20060;-74
2021/12/21 14:18:13;;;;;;;4.97;3.30;;;;;;;;;;5034873;28;20087;-73
2021/12/21 14:20:38;;;;;;;0.30;0.30;;;;;;;;;;5043484;28;20047;-74
2021/12/21 14:23:04;;;;;;;0.05;0.05;;;;;;;;;;5033630;28;20037;-74
2021/12/21 14:25:33;;;;;;;4.13;2.95;;;;;;;;;;5032890;28;20033;-74
2021/12/21 14:28:09;;;;;;;0.10;0.10;;;;;;;;;;5039731;28;20053;-74
2021/12/21 14:30:35;;;;;;;1.70;1.60;;;;;;;;;;5030605;28;20017;-74
2021/12/21 14:33:25;;;;;;;1.00;1.00;;;;;;;;;;5033139;28;20526;-74
2021/12/21 14:35:52;;;;;;;0.10;0.10;;;;;;;;;;5035107;28;20033;-74
2021/12/21 14:38:18;;;;;;;1.80;1.50;;;;;;;;;;5041140;28;20480;-75
2021/12/21 14:40:45;;;;;;;3.65;2.30;;;;;;;;;;5036832;28;20087;-75
2021/12/21 14:43:20;;;;;;;0.35;0.35;;;;;;;;;;5049579;28;20027;-77
2021/12/21 14:45:47;;;;;;;2.47;1.50;;;;;;;;;;5042896;28;20075;-73
2021/12/21 14:48:20;;;;;;;0.57;0.57;;;;;;;;;;5040364;28;20705;-73
2021/12/21 14:50:49;;;;;;;0.75;0.75;;;;;;;;;;5062813;28;20127;-72
2021/12/21 14:53:16;;;;;;;2.28;1.63;;;;;;;;;;5047437;28;20056;-73
2021/12/21 14:55:42;;;;;;;2.47;2.13;;;;;;;;;;5043345;28;20029;-73
2021/12/21 14:58:10;;;;;;;9.43;1.08;;;;;;;;;;5037404;28;20025;-74
2021/12/21 15:00:41;;;;;;;1.00;1.00;;;;;;;;;;5041405;28;20033;-73
2021/12/21 15:03:12;;;;;;;0.45;0.45;;;;;;;;;;5031136;28;20087;-72
2021/12/21 15:05:39;;;;;;;0.73;0.73;;;;;;;;;;5044510;28;20575;-74
2021/12/21 15:08:06;;;;;;;1.25;1.15;;;;;;;;;;5031205;28;20021;-74
2021/12/21 15:10:34;;;;;;;0.85;0.85;;;;;;;;;;5035482;28;20026;-74
2021/12/21 15:13:06;;;;;;;0.55;0.55;;;;;;;;;;5033046;28;20025;-75
2021/12/21 15:15:33;;;;;;;1.27;0.80;;;;;;;;;;5034909;28;20625;-74
2021/12/21 15:18:00;;;;;;;0.30;0.30;;;;;;;;;;5031628;28;20071;-74
2021/12/21 15:20:27;;;;;;;0.63;0.63;;;;;;;;;;5030749;28;20484;-82
2021/12/21 15:22:53;;;;;;;0.47;0.47;;;;;;;;;;5035935;28;20777;-75
2021/12/21 15:25:20;;;;;;;1.17;1.10;;;;;;;;;;5039270;28;20530;-74
2021/12/21 15:27:46;;;;;;;0.10;0.10;;;;;;;;;;5031051;28;20045;-75
2021/12/21 15:30:15;;;;;;;0.15;0.15;;;;;;;;;;5035328;28;20025;-75
2021/12/21 15:32:41;;;;;;;1.08;0.68;;;;;;;;;;5036934;28;20074;-76
2021/12/21 15:35:08;;;;;;;0.38;0.20;;;;;;;;;;5032789;28;20024;-74
2021/12/21 15:37:34;;;;;;;0.30;0.30;;;;;;;;;;5033283;28;20060;-74
2021/12/21 15:40:00;;;;;;;0.32;0.32;;;;;;;;;;5035846;28;20041;-72
2021/12/21 15:42:28;;;;;;;0.20;0.20;;;;;;;;;;5031169;28;20433;-71
2021/12/21 15:44:58;;;;;;;0.30;0.30;;;;;;;;;;5028770;28;20045;-71